createdAt,value
2022-11-02T00:07:09.930Z,25.30
2022-11-02T00:22:10.014Z,27.10
2022-11-02T00:37:10.706Z,22.60
2022-11-02T00:52:11.226Z,20.40
2022-11-02T01:07:11.349Z,20.20
2022-11-02T01:22:11.459Z,24.80
2022-11-02T01:37:12.065Z,31.20
2022-11-02T01:52:11.660Z,29.00
2022-11-02T02:07:11.770Z,30.30
2022-11-02T02:22:11.858Z,30.20
2022-11-02T02:37:13.035Z,22.50
2022-11-02T02:52:12.618Z,29.00
2022-11-02T03:07:13.205Z,32.00
2022-11-02T03:22:12.824Z,22.40
2022-11-02T03:37:12.937Z,18.10
2022-11-02T03:52:13.025Z,21.00
2022-11-02T04:07:13.626Z,28.90
2022-11-02T04:22:14.712Z,20.90
2022-11-02T04:37:14.848Z,20.40
2022-11-02T04:52:14.947Z,19.50
2022-11-02T05:07:15.053Z,11.80
2022-11-02T05:22:15.649Z,15.20
2022-11-02T05:37:15.764Z,20.80
2022-11-02T05:52:15.848Z,18.70
2022-11-02T06:07:15.961Z,18.20
2022-11-02T06:22:15.585Z,12.20
2022-11-02T06:37:16.189Z,11.00
2022-11-02T06:52:16.762Z,17.40
2022-11-02T07:07:16.880Z,13.00
2022-11-02T07:22:17.050Z,9.80
2022-11-02T07:37:17.578Z,10.50
2022-11-02T07:52:17.188Z,15.40
2022-11-02T08:07:17.311Z,11.10
2022-11-02T08:22:17.896Z,4.50
2022-11-02T08:37:17.542Z,3.10
2022-11-02T08:52:17.630Z,8.00
2022-11-02T09:07:18.231Z,11.90
2022-11-02T09:22:18.314Z,4.60
2022-11-02T09:37:17.955Z,7.70
2022-11-02T09:52:18.033Z,7.10
2022-11-02T10:07:18.165Z,5.30
2022-11-02T10:22:18.899Z,6.10
2022-11-02T10:37:18.933Z,5.90
2022-11-02T10:52:19.017Z,6.00
2022-11-02T11:07:19.640Z,5.10
2022-11-02T11:22:19.222Z,3.20
2022-11-02T11:37:19.366Z,9.00
2022-11-02T11:52:19.452Z,8.30
2022-11-02T12:07:19.545Z,6.00
2022-11-02T12:22:20.111Z,3.00
2022-11-02T12:37:39.948Z,6.00
2022-11-02T12:52:24.828Z,5.20
2022-11-02T13:07:25.438Z,5.80
2022-11-02T13:22:25.568Z,3.10
2022-11-02T13:37:26.127Z,4.90
2022-11-02T13:52:27.264Z,3.80
2022-11-02T14:07:27.833Z,3.70
2022-11-02T14:22:28.438Z,5.20
2022-11-02T14:37:28.530Z,4.30
2022-11-02T14:52:28.142Z,5.50
2022-11-02T15:07:29.475Z,4.50
2022-11-02T15:22:29.595Z,5.60
2022-11-02T15:37:29.683Z,3.40
2022-11-02T15:52:29.781Z,3.80
2022-11-02T16:07:38.552Z,4.50
2022-11-02T16:22:34.984Z,4.70
2022-11-02T16:37:35.071Z,5.00
2022-11-02T16:52:35.682Z,8.10
2022-11-02T17:07:35.281Z,6.10
2022-11-02T17:22:35.401Z,5.10
2022-11-02T17:37:35.490Z,6.40
2022-11-02T17:52:37.093Z,3.70
2022-11-02T18:07:38.170Z,2.60
2022-11-02T18:22:38.273Z,7.50
2022-11-02T18:37:38.872Z,8.80
2022-11-02T18:52:39.025Z,7.70
2022-11-02T19:07:40.096Z,7.80
2022-11-02T19:22:40.241Z,10.90
2022-11-02T19:37:40.828Z,11.40
2022-11-02T19:52:41.033Z,11.90
2022-11-02T20:07:41.542Z,10.30
2022-11-02T20:22:41.696Z,13.00
2022-11-02T20:37:42.331Z,18.40
2022-11-02T20:52:42.440Z,14.00
2022-11-02T21:07:42.566Z,19.30
2022-11-02T21:22:42.700Z,11.60
2022-11-02T21:37:43.780Z,13.20
2022-11-02T21:52:45.247Z,16.50
2022-11-02T22:07:46.527Z,13.30
2022-11-02T22:22:47.126Z,12.40
2022-11-02T22:37:48.246Z,19.10
2022-11-02T22:52:48.328Z,11.10
2022-11-02T23:07:48.475Z,11.90
2022-11-02T23:22:49.057Z,16.50
2022-11-02T23:37:49.216Z,10.70
2022-11-02T23:52:49.304Z,12.90
